Pagrindinis puslapis
METAR-TAF:

METAR-TAF

Oro uostai :

Savonlinna, Suomija

platuma: 61-57N, ilguma: 028-57E, Aukštis: 95 m

Dabartinis oras

Ataskaita buvo paskelbta 39 minutes, ne 11:50 UTC
Vėjas 3 kt iš Pietų/Pietvakarių
Temperatūra 0°C
Drėgmė 100%
Slėgis 995 hPa
Matomumas: 1900 m
Apsiniaukę ne aukštis 200 ft
rūkana

METAR: EFSA 161150Z 21003KT 1900 BR OVC002 00/00 Q0995

Laikas: 14:29 (12:29 UTC)

Prognozė

Ataskaita buvo paskelbta 58 minutes, ne 11:31 UTC
Prognozė galioja nuo 16 metu 12 UTC su 16 metu 21 UTC
Vėjas 3 kt iš Pietų/Pietvakarių
Matomumas: 8000 m
Su prošvaistėmis ne aukštis 300 ft
lietus
Tapsmas
nuo 16 metu 12 UTC su 16 metu 14 UTC
Matomumas: 1200 m
rūkana
Laikinai
nuo 16 metu 14 UTC su 16 metu 21 UTC
Matomumas: 3000 m

TAF: EFSA 161131Z 1612/1621 20003KT 8000 -RA BKN003 BECMG 1612/1614 1200 BR TEMPO 1614/1621 3000

Orai ataskaitas ir orų prognozės (METAR, TAF).

turimą stotys yra geltonos ir raudonos taškus žemėlapyje.

Perkelti pele per norėdami pamatyti stoties vardą.

Tada spustelėkite, norėdami matyti oro stebėjimo ir prognozės.

Norėdami pakeisti žemėlapį: spustelėkite ant žalios mygtukų su juodo kryžiaus žemyn,; žalią mygtuką su brūkšneliu, jei norite nutolinti; arba žalių rodyklių gretimoms žemėlapius.


METAR-TAF: